Time;durP1;ratioP1;P1;durP2;ratioP2;P2;SDS_P1;SDS_P2;PMS_P1;PMS_P2;Temp;Humidity;BMP_temperature;BMP_pressure;BME280_temperature;BME280_humidity;BME280_pressure;Samples;Min_cycle;Max_cycle;Signal;HPM_P1;HPM_P2
2022/06/17 00:03:39;;;;;;;10.85;7.50;;;15.30;99.90;;;;;;20898186;28;20045;-52
2022/06/17 00:13:42;;;;;;;15.02;11.70;;;14.80;99.90;;;;;;20897520;28;20053;-57
2022/06/17 00:23:45;;;;;;;19.10;11.65;;;15.10;99.90;;;;;;20910447;28;20052;-58
2022/06/17 00:33:48;;;;;;;11.45;8.38;;;15.10;99.90;;;;;;20987755;28;20089;-50
2022/06/17 00:43:51;;;;;;;18.65;12.35;;;15.10;99.90;;;;;;20986583;28;20086;-51
2022/06/17 00:54:02;;;;;;;21.25;14.40;;;14.90;99.90;;;;;;20973768;28;20087;-58
2022/06/17 01:04:06;;;;;;;14.32;12.00;;;15.00;99.90;;;;;;20903590;28;20041;-52
2022/06/17 01:14:12;;;;;;;16.00;10.15;;;15.10;99.90;;;;;;20902162;28;20392;-58
2022/06/17 01:24:16;;;;;;;17.40;12.73;;;15.20;99.90;;;;;;20925371;28;20479;-58
2022/06/17 01:34:20;;;;;;;20.50;14.63;;;15.10;99.90;;;;;;20995950;28;20040;-58
2022/06/17 01:44:32;;;;;;;24.13;17.42;;;14.80;99.90;;;;;;21032892;28;20040;-49
2022/06/17 01:54:50;;;;;;;26.23;15.65;;;14.80;99.90;;;;;;21049742;28;20036;-58
2022/06/17 02:04:57;;;;;;;20.20;14.43;;;14.80;99.90;;;;;;21050484;28;20070;-58
2022/06/17 02:15:02;;;;;;;18.17;14.53;;;14.90;99.90;;;;;;20965539;28;20391;-51
2022/06/17 02:25:30;;;;;;;20.30;14.15;;;14.90;99.90;;;;;;20791336;28;20536;-50
2022/06/17 02:35:53;;;;;;;18.73;12.63;;;14.80;99.90;;;;;;20791172;28;20049;-57
2022/06/17 02:46:27;;;;;;;18.85;13.65;;;14.60;99.90;;;;;;20790533;28;20091;-58
2022/06/17 02:56:33;;;;;;;19.88;13.38;;;14.60;99.90;;;;;;20871448;28;20544;-57
2022/06/17 03:06:39;;;;;;;22.23;15.10;;;14.60;99.90;;;;;;21061193;28;20047;-58
2022/06/17 03:16:44;;;;;;;22.70;16.70;;;14.50;99.90;;;;;;21044196;28;20089;-58
2022/06/17 03:26:56;;;;;;;24.88;13.68;;;14.60;99.90;;;;;;21059724;28;20044;-56
2022/06/17 03:37:21;;;;;;;21.35;14.90;;;14.80;99.90;;;;;;21008114;28;20036;-57
2022/06/17 03:47:24;;;;;;;20.30;14.88;;;14.80;99.90;;;;;;20991257;28;20114;-57
2022/06/17 03:57:30;;;;;;;13.73;10.73;;;14.90;99.90;;;;;;20990703;28;20037;-57
2022/06/17 04:07:32;;;;;;;13.68;8.25;;;14.90;99.90;;;;;;21008197;28;20475;-53
2022/06/17 04:17:51;;;;;;;7.15;4.85;;;14.90;99.90;;;;;;21055690;28;20036;-57
2022/06/17 04:27:59;;;;;;;5.43;4.40;;;14.80;99.90;;;;;;21054980;28;20556;-57
2022/06/17 04:38:06;;;;;;;5.53;3.90;;;14.80;99.90;;;;;;21054341;28;20036;-57
2022/06/17 04:48:32;;;;;;;6.15;3.92;;;14.90;99.90;;;;;;21052647;28;20028;-57
2022/06/17 04:58:34;;;;;;;5.35;3.53;;;15.00;99.90;;;;;;21001487;28;20093;-58
2022/06/17 05:09:20;;;;;;;5.90;3.63;;;15.30;99.90;;;;;;20968818;28;20078;-51
2022/06/17 05:19:23;;;;;;;5.80;2.80;;;15.70;99.90;;;;;;20967606;28;20044;-57
2022/06/17 05:29:27;;;;;;;4.05;2.95;;;16.20;99.90;;;;;;20982643;28;20083;-57
2022/06/17 05:39:35;;;;;;;6.82;2.85;;;16.40;99.90;;;;;;21039596;28;20036;-57
2022/06/17 05:49:38;;;;;;;3.78;2.08;;;16.50;99.90;;;;;;21049964;28;20104;-57
2022/06/17 06:00:05;;;;;;;4.47;2.35;;;16.40;99.90;;;;;;21041716;28;20047;-58
2022/06/17 06:10:15;;;;;;;3.25;1.85;;;17.00;99.90;;;;;;21007574;28;20475;-58
2022/06/17 06:20:19;;;;;;;5.55;1.83;;;19.70;99.90;;;;;;20982158;28;20036;-55
2022/06/17 06:30:26;;;;;;;5.15;2.53;;;24.10;92.20;;;;;;20994174;28;20154;-58
2022/06/17 06:40:30;;;;;;;2.75;1.50;;;25.40;83.70;;;;;;20979985;28;20471;-58
2022/06/17 06:50:34;;;;;;;3.85;1.73;;;26.80;78.30;;;;;;20996490;28;20036;-58
2022/06/17 07:00:43;;;;;;;1.92;1.63;;;27.90;72.50;;;;;;21061846;28;20032;-59
2022/06/17 07:10:48;;;;;;;3.58;2.40;;;26.50;74.80;;;;;;21044890;28;20028;-59
2022/06/17 07:20:56;;;;;;;2.43;1.70;;;27.40;68.10;;;;;;21060763;28;20066;-60
2022/06/17 07:30:59;;;;;;;3.42;1.73;;;28.70;70.10;;;;;;20992870;28;20045;-54
2022/06/17 07:41:02;;;;;;;4.78;1.40;;;28.50;64.00;;;;;;20923728;28;20514;-60
2022/06/17 07:51:09;;;;;;;3.92;1.40;;;27.50;65.70;;;;;;20908977;28;20041;-60
2022/06/17 08:01:12;;;;;;;6.17;1.70;;;27.00;66.10;;;;;;20908168;28;20071;-60
2022/06/17 08:11:16;;;;;;;3.13;2.03;;;26.30;67.30;;;;;;20956162;28;20037;-59
2022/06/17 08:21:19;;;;;;;6.15;1.95;;;25.50;66.70;;;;;;20989377;28;20040;-60
2022/06/17 08:31:21;;;;;;;3.40;1.65;;;25.50;65.90;;;;;;20988547;28;20052;-62
2022/06/17 08:41:28;;;;;;;2.75;1.70;;;26.50;66.20;;;;;;20987174;28;20105;-56
2022/06/17 08:51:49;;;;;;;4.63;1.92;;;25.80;65.90;;;;;;20985003;28;20483;-60
2022/06/17 09:01:55;;;;;;;6.03;1.58;;;25.50;68.90;;;;;;20907593;28;20106;-61
2022/06/17 09:12:00;;;;;;;4.95;1.90;;;25.70;66.60;;;;;;20902178;28;20029;-57
2022/06/17 09:22:20;;;;;;;3.97;1.92;;;26.40;64.20;;;;;;20907360;28;20056;-61
2022/06/17 09:32:45;;;;;;;3.88;2.63;;;26.80;69.10;;;;;;20983675;28;20040;-63
2022/06/17 09:43:11;;;;;;;4.03;2.60;;;28.10;80.20;;;;;;20983489;28;20040;-63
2022/06/17 09:53:28;;;;;;;6.20;2.75;;;28.70;80.20;;;;;;20983095;28;20056;-63
2022/06/17 10:03:34;;;;;;;5.32;2.45;;;29.10;78.20;;;;;;20993515;28;20078;-63
2022/06/17 10:14:11;;;;;;;4.65;3.10;;;29.60;76.40;;;;;;20998588;28;20423;-64
2022/06/17 10:24:23;;;;;;;7.10;3.35;;;29.90;74.70;;;;;;20998013;28;20045;-64
2022/06/17 10:34:38;;;;;;;4.88;3.83;;;30.20;76.40;;;;;;20997251;28;20082;-64
2022/06/17 10:44:43;;;;;;;4.90;3.47;;;30.30;75.50;;;;;;20996143;28;20089;-64
2022/06/17 10:54:46;;;;;;;;;;;30.30;78.20;;;;;;20995873;28;20036;-64
2022/06/17 11:04:51;;;;;;;6.90;3.88;;;30.60;75.20;;;;;;20994515;28;20425;-63
2022/06/17 11:15:03;;;;;;;3.80;3.40;;;30.60;77.00;;;;;;20993147;28;20040;-64
2022/06/17 11:25:25;;;;;;;4.55;2.90;;;30.50;74.20;;;;;;21024468;28;20097;-64
2022/06/17 11:35:34;;;;;;;5.75;4.20;;;29.60;75.50;;;;;;21037666;28;20437;-64
2022/06/17 11:45:44;;;;;;;7.28;4.43;;;29.90;78.30;;;;;;20991510;28;20639;-65
2022/06/17 11:55:49;;;;;;;6.60;5.40;;;30.20;75.90;;;;;;20990933;28;20033;-64
2022/06/17 12:06:01;;;;;;;7.93;5.57;;;30.40;79.40;;;;;;20994804;28;20039;-64
2022/06/17 12:16:20;;;;;;;6.53;5.93;;;30.00;84.00;;;;;;20815723;28;20095;-64
2022/06/17 12:26:36;;;;;;;10.50;5.40;;;29.90;79.70;;;;;;20797579;28;20092;-64
2022/06/17 12:36:53;;;;;;;8.68;7.75;;;29.20;83.40;;;;;;20797982;28;20045;-63
2022/06/17 12:47:08;;;;;;;9.65;6.82;;;29.60;82.30;;;;;;20796558;28;20050;-62
2022/06/17 12:57:25;;;;;;;11.52;7.13;;;27.90;85.10;;;;;;20861959;28;20400;-63
2022/06/17 13:07:56;;;;;;;9.00;8.10;;;27.70;88.40;;;;;;20903006;28;20110;-51
2022/06/17 13:18:09;;;;;;;10.48;8.68;;;27.30;90.40;;;;;;20616235;28;20038;-55
2022/06/17 13:28:30;;;;;;;9.93;8.82;;;27.30;90.50;;;;;;20631239;28;20564;-62
2022/06/17 13:38:39;;;;;;;11.18;9.52;;;27.10;90.60;;;;;;20676113;28;20073;-61
2022/06/17 13:49:11;;;;;;;11.38;10.18;;;26.30;92.10;;;;;;20751384;28;20094;-62
2022/06/17 13:59:38;;;;;;;11.60;10.40;;;26.00;92.80;;;;;;20897813;28;20438;-61
2022/06/17 14:09:42;;;;;;;14.38;11.70;;;25.70;92.60;;;;;;20916359;28;20099;-61
2022/06/17 14:19:54;;;;;;;11.40;9.52;;;25.20;94.10;;;;;;20899856;28;20045;-61
2022/06/17 14:30:12;;;;;;;16.85;10.38;;;25.10;94.00;;;;;;20969754;28;20083;-61
2022/06/17 14:42:01;;;;;;;11.90;10.00;;;26.50;93.20;;;;;;20981809;28;20032;-62
2022/06/17 14:51:30;;;;;;;15.73;10.55;;;26.60;91.50;;;;;;20992922;28;20404;-62
2022/06/17 15:01:42;;;;;;;13.20;9.68;;;25.80;92.60;;;;;;20919496;28;20041;-61
2022/06/17 15:11:53;;;;;;;9.88;8.77;;;25.20;93.40;;;;;;20912229;28;20041;-61
2022/06/17 15:21:59;;;;;;;12.27;9.23;;;25.10;94.60;;;;;;20914959;28;20395;-61
2022/06/17 15:32:16;;;;;;;9.60;8.63;;;25.40;93.70;;;;;;20993092;28;20041;-61
2022/06/17 15:42:24;;;;;;;9.88;8.60;;;25.10;93.10;;;;;;20991700;28;20110;-61
2022/06/17 15:52:37;;;;;;;11.98;8.10;;;24.80;94.60;;;;;;20991280;28;20106;-62
2022/06/17 16:02:47;;;;;;;9.95;6.88;;;26.60;91.50;;;;;;20991189;28;20036;-63
2022/06/17 16:13:05;;;;;;;7.13;6.43;;;27.20;89.20;;;;;;20988886;28;20106;-62
2022/06/17 16:23:25;;;;;;;9.52;6.78;;;26.30;91.30;;;;;;20988010;28;20449;-53
2022/06/17 16:33:32;;;;;;;8.55;7.10;;;25.60;91.00;;;;;;20987557;28;20037;-60
2022/06/17 16:54:02;;;;;;;7.50;6.80;;;25.10;90.80;;;;;;20986399;28;20036;-54
2022/06/17 17:04:05;;;;;;;8.60;7.70;;;24.40;92.40;;;;;;20985119;28;20036;-59
2022/06/17 17:14:10;;;;;;;15.65;8.00;;;22.70;95.60;;;;;;20984367;28;20067;-60
2022/06/17 17:24:17;;;;;;;11.05;6.82;;;22.30;94.10;;;;;;20984564;28;20041;-59
2022/06/17 17:34:20;;;;;;;17.95;7.75;;;21.90;95.50;;;;;;20983338;28;20044;-59
2022/06/17 17:44:24;;;;;;;9.23;6.70;;;21.40;97.20;;;;;;20983549;28;20036;-59
2022/06/17 17:54:27;;;;;;;16.27;7.95;;;20.70;98.30;;;;;;20982593;28;20032;-60
2022/06/17 18:04:30;;;;;;;88.55;13.68;;;20.00;99.80;;;;;;20981955;28;20449;-60
2022/06/17 18:14:34;;;;;;;12.05;7.80;;;19.50;99.90;;;;;;20981863;28;20033;-60
2022/06/17 18:24:38;;;;;;;38.10;10.90;;;18.80;99.90;;;;;;20992155;28;20044;-59
2022/06/17 18:34:46;;;;;;;11.73;7.05;;;18.40;99.90;;;;;;20997322;28;20036;-59
2022/06/17 18:44:49;;;;;;;10.77;6.80;;;;;;;;;;20996416;28;20039;-50
2022/06/17 18:55:00;;;;;;;9.13;6.68;;;18.00;99.90;;;;;;20995286;28;20545;-59
2022/06/17 19:05:06;;;;;;;17.25;8.23;;;18.00;99.90;;;;;;20991926;28;20040;-52
2022/06/17 19:25:34;;;;;;;10.52;7.78;;;17.80;99.90;;;;;;21027539;28;20502;-59
2022/06/17 19:35:40;;;;;;;9.65;7.40;;;17.40;99.90;;;;;;21035380;28;20094;-58
2022/06/17 19:45:45;;;;;;;10.38;7.97;;;17.00;99.90;;;;;;20991370;28;20081;-52
2022/06/17 19:55:51;;;;;;;13.82;10.00;;;16.90;99.90;;;;;;20990691;28;20175;-58
2022/06/17 20:05:54;;;;;;;18.40;11.23;;;16.80;99.90;;;;;;20994137;28;20367;-52
2022/06/17 20:15:57;;;;;;;15.40;12.82;;;16.80;99.90;;;;;;21055751;28;20036;-58
2022/06/17 20:25:59;;;;;;;19.38;15.02;;;16.70;99.90;;;;;;21054213;28;20449;-58
2022/06/17 20:36:03;;;;;;;16.75;13.40;;;16.40;99.90;;;;;;21053755;28;20032;-58
2022/06/17 20:58:08;;;;;;;27.00;15.00;;;16.00;99.90;;;;;;21018678;28;20526;-48
2022/06/17 21:07:00;;;;;;;20.58;15.30;;;16.00;99.90;;;;;;20984525;28;20438;-58
2022/06/17 21:17:03;;;;;;;25.67;17.55;;;15.90;99.90;;;;;;20968133;28;20392;-58
2022/06/17 21:27:10;;;;;;;22.30;15.35;;;15.80;99.90;;;;;;20983766;28;20101;-52
2022/06/17 21:37:14;;;;;;;20.23;15.93;;;15.70;99.90;;;;;;21019225;28;20515;-58
2022/06/17 21:47:16;;;;;;;24.15;16.27;;;15.60;99.90;;;;;;21049848;28;20036;-58
2022/06/17 21:57:22;;;;;;;21.35;15.43;;;15.40;99.90;;;;;;21056749;28;20028;-59
2022/06/17 22:07:25;;;;;;;18.27;14.32;;;15.50;99.90;;;;;;21049493;28;20040;-59
2022/06/17 22:17:27;;;;;;;19.63;13.52;;;15.40;99.90;;;;;;20998402;28;20041;-58
2022/06/17 22:27:31;;;;;;;15.38;12.43;;;15.30;99.90;;;;;;20997305;28;20046;-58
2022/06/17 22:48:04;;;;;;;14.32;9.65;;;15.10;99.90;;;;;;20822230;28;20578;-52
2022/06/17 22:58:10;;;;;;;10.95;7.38;;;15.00;99.90;;;;;;20805471;28;20087;-52
2022/06/17 23:08:14;;;;;;;8.27;5.38;;;14.70;99.90;;;;;;20802935;28;20071;-52
2022/06/17 23:28:39;;;;;;;6.28;4.32;;;14.40;99.90;;;;;;21059606;28;20052;-58
2022/06/17 23:38:41;;;;;;;9.75;4.68;;;14.30;99.90;;;;;;21011031;28;20048;-58
2022/06/17 23:48:49;;;;;;;6.18;3.85;;;14.20;99.90;;;;;;20975078;28;20086;-58
2022/06/17 23:58:58;;;;;;;5.72;3.45;;;14.20;99.90;;;;;;20974622;28;20095;-50
